Time;durP1;ratioP1;P1;durP2;ratioP2;P2;SDS_P1;SDS_P2;PMS_P1;PMS_P2;Temp;Humidity;BMP_temperature;BMP_pressure;BME280_temperature;BME280_humidity;BME280_pressure;Samples;Min_cycle;Max_cycle;Signal;HPM_P1;HPM_P2
2022/03/18 00:02:03;;;;;;;71.68;35.33;;;;;;;;;;4981582;28;20050;-68
2022/03/18 00:04:29;;;;;;;56.88;32.78;;;;;;;;;;4981809;28;20057;-68
2022/03/18 00:06:54;;;;;;;58.42;32.35;;;;;;;;;;4980747;28;20613;-68
2022/03/18 00:09:20;;;;;;;62.38;35.42;;;;;;;;;;4981710;28;20053;-68
2022/03/18 00:11:45;;;;;;;62.85;35.90;;;;;;;;;;4981585;28;20042;-67
2022/03/18 00:14:11;;;;;;;65.57;36.05;;;;;;;;;;4981869;28;20101;-68
2022/03/18 00:16:36;;;;;;;60.20;34.72;;;;;;;;;;4980129;28;20585;-68
2022/03/18 00:19:02;;;;;;;59.72;34.00;;;;;;;;;;4981338;28;20060;-67
2022/03/18 00:21:27;;;;;;;60.20;34.35;;;;;;;;;;4981429;28;20034;-68
2022/03/18 00:23:53;;;;;;;69.05;37.30;;;;;;;;;;4981876;28;20034;-68
2022/03/18 00:26:19;;;;;;;65.55;36.90;;;;;;;;;;4981453;28;20473;-67
2022/03/18 00:28:44;;;;;;;67.35;34.40;;;;;;;;;;4980300;28;20038;-67
2022/03/18 00:31:10;;;;;;;62.17;35.03;;;;;;;;;;4980871;28;20107;-66
2022/03/18 00:33:35;;;;;;;65.45;35.95;;;;;;;;;;4981756;28;20041;-67
2022/03/18 00:36:01;;;;;;;62.40;34.05;;;;;;;;;;4981255;28;20035;-68
2022/03/18 00:38:27;;;;;;;66.43;35.25;;;;;;;;;;4980547;28;20057;-67
2022/03/18 00:40:55;;;;;;;66.05;37.55;;;;;;;;;;4981439;28;20037;-67
2022/03/18 00:43:20;;;;;;;67.82;36.13;;;;;;;;;;4981244;28;20137;-67
2022/03/18 00:45:46;;;;;;;73.18;37.20;;;;;;;;;;4981290;28;20517;-67
2022/03/18 00:57:27;;;;;;;66.53;35.95;;;;;;;;;;4988010;28;20134;-67
2022/03/18 00:59:52;;;;;;;67.07;35.63;;;;;;;;;;4984903;28;20136;-67
2022/03/18 01:02:18;;;;;;;76.47;36.63;;;;;;;;;;4983924;28;20069;-67
2022/03/18 01:04:43;;;;;;;68.03;36.42;;;;;;;;;;4983571;28;20042;-68
2022/03/18 01:07:09;;;;;;;70.25;38.30;;;;;;;;;;4983025;28;20046;-66
2022/03/18 01:09:34;;;;;;;69.72;36.20;;;;;;;;;;4982959;28;20102;-67
2022/03/18 01:12:00;;;;;;;74.00;38.20;;;;;;;;;;4982168;28;20042;-67
2022/03/18 01:14:26;;;;;;;71.60;38.20;;;;;;;;;;4982780;28;20093;-67
2022/03/18 01:16:51;;;;;;;77.95;40.65;;;;;;;;;;4982496;28;20106;-67
2022/03/18 01:19:18;;;;;;;74.70;39.33;;;;;;;;;;4982912;28;20034;-67
2022/03/18 01:21:43;;;;;;;78.47;38.47;;;;;;;;;;4984616;28;20156;-67
2022/03/18 01:24:10;;;;;;;68.90;37.00;;;;;;;;;;4983391;28;20575;-67
2022/03/18 01:26:35;;;;;;;71.60;38.10;;;;;;;;;;4984422;28;20034;-67
2022/03/18 01:29:01;;;;;;;73.75;38.65;;;;;;;;;;4984196;28;20050;-68
2022/03/18 01:31:26;;;;;;;73.82;38.55;;;;;;;;;;4983835;28;20042;-68
2022/03/18 01:33:52;;;;;;;72.07;37.35;;;;;;;;;;4982380;28;20034;-67
2022/03/18 01:36:17;;;;;;;73.57;39.90;;;;;;;;;;4984169;28;21654;-67
2022/03/18 01:38:43;;;;;;;74.07;39.63;;;;;;;;;;4984039;28;20042;-68
2022/03/18 01:41:09;;;;;;;78.63;39.47;;;;;;;;;;4984075;28;20049;-67
2022/03/18 01:43:41;;;;;;;77.85;39.83;;;;;;;;;;4984371;28;20073;-68
2022/03/18 01:46:07;;;;;;;78.55;38.10;;;;;;;;;;4982739;28;20035;-67
2022/03/18 01:48:32;;;;;;;79.22;40.08;;;;;;;;;;4983885;28;20070;-68
2022/03/18 01:50:58;;;;;;;81.65;42.35;;;;;;;;;;4984026;28;20520;-68
2022/03/18 01:53:24;;;;;;;90.25;43.42;;;;;;;;;;4984332;28;20744;-68
2022/03/18 01:55:49;;;;;;;79.80;42.10;;;;;;;;;;4982781;28;20499;-68
2022/03/18 01:58:15;;;;;;;82.55;41.22;;;;;;;;;;4983801;28;20046;-68
2022/03/18 02:00:40;;;;;;;86.63;44.28;;;;;;;;;;4983626;28;20038;-68
2022/03/18 02:03:06;;;;;;;89.43;42.38;;;;;;;;;;4983166;28;20073;-68
2022/03/18 02:05:31;;;;;;;77.65;40.20;;;;;;;;;;4984005;28;20109;-68
2022/03/18 02:07:57;;;;;;;80.72;41.42;;;;;;;;;;4982775;28;20042;-68
2022/03/18 02:10:22;;;;;;;83.07;39.58;;;;;;;;;;4983412;28;20554;-68
2022/03/18 02:12:48;;;;;;;84.47;40.38;;;;;;;;;;4983715;28;20034;-68
2022/03/18 02:15:13;;;;;;;78.90;39.72;;;;;;;;;;4982923;28;20044;-67
2022/03/18 02:17:38;;;;;;;81.45;41.00;;;;;;;;;;4982605;28;20117;-67
2022/03/18 02:20:05;;;;;;;77.45;40.00;;;;;;;;;;4983196;28;20415;-67
2022/03/18 02:22:40;;;;;;;74.68;38.38;;;;;;;;;;4983605;28;20034;-67
2022/03/18 02:25:12;;;;;;;74.95;37.92;;;;;;;;;;4983356;28;20038;-68
2022/03/18 02:27:39;;;;;;;82.55;40.20;;;;;;;;;;4983156;28;20173;-67
2022/03/18 02:30:08;;;;;;;76.45;40.63;;;;;;;;;;4980839;28;20057;-68
2022/03/18 02:32:35;;;;;;;81.25;40.92;;;;;;;;;;4983080;28;20061;-67
2022/03/18 02:35:01;;;;;;;79.80;42.38;;;;;;;;;;4980134;28;20042;-68
2022/03/18 02:37:27;;;;;;;95.05;44.63;;;;;;;;;;4980838;28;20058;-68
2022/03/18 02:39:53;;;;;;;86.45;42.88;;;;;;;;;;4981912;28;20484;-68
2022/03/18 02:42:19;;;;;;;87.50;42.20;;;;;;;;;;4982969;28;20057;-67
2022/03/18 02:44:44;;;;;;;76.97;41.03;;;;;;;;;;4982599;28;20050;-68
2022/03/18 02:47:10;;;;;;;76.55;39.90;;;;;;;;;;4982722;28;20038;-68
2022/03/18 02:49:35;;;;;;;75.07;39.95;;;;;;;;;;4983004;28;20121;-68
2022/03/18 02:52:00;;;;;;;80.50;42.33;;;;;;;;;;4982024;28;20116;-68
2022/03/18 02:54:26;;;;;;;74.18;38.60;;;;;;;;;;4982619;28;20042;-67
2022/03/18 02:56:51;;;;;;;77.88;40.38;;;;;;;;;;4982842;28;20045;-68
2022/03/18 02:59:17;;;;;;;70.72;37.75;;;;;;;;;;4982337;28;20176;-68
2022/03/18 03:01:43;;;;;;;75.75;39.30;;;;;;;;;;4981695;28;20146;-67
2022/03/18 03:04:09;;;;;;;68.65;37.88;;;;;;;;;;4982289;28;20121;-67
2022/03/18 03:09:19;;;;;;;76.10;41.15;;;;;;;;;;4982479;28;20049;-68
2022/03/18 03:11:45;;;;;;;82.35;40.20;;;;;;;;;;4982572;28;20026;-67
2022/03/18 03:14:12;;;;;;;72.38;39.80;;;;;;;;;;4981643;28;20111;-68
2022/03/18 03:16:37;;;;;;;77.10;40.55;;;;;;;;;;4981855;28;20038;-67
2022/03/18 03:19:03;;;;;;;85.55;43.33;;;;;;;;;;4978500;28;20045;-67
2022/03/18 03:21:30;;;;;;;94.65;45.42;;;;;;;;;;4982163;28;20484;-67
2022/03/18 03:23:56;;;;;;;86.45;43.05;;;;;;;;;;4981150;28;20042;-68
2022/03/18 03:26:21;;;;;;;94.75;45.15;;;;;;;;;;4982120;28;20039;-67
2022/03/18 03:28:47;;;;;;;83.25;41.83;;;;;;;;;;4981889;28;20053;-67
2022/03/18 03:31:13;;;;;;;96.30;45.88;;;;;;;;;;4982214;28;20030;-67
2022/03/18 03:33:39;;;;;;;95.18;45.00;;;;;;;;;;4982180;28;20486;-68
2022/03/18 03:36:05;;;;;;;98.55;45.05;;;;;;;;;;4981031;28;20041;-67
2022/03/18 03:38:30;;;;;;;95.03;44.92;;;;;;;;;;4981587;28;20380;-68
2022/03/18 03:40:56;;;;;;;106.32;49.35;;;;;;;;;;4982182;28;20502;-68
2022/03/18 03:43:21;;;;;;;103.30;47.55;;;;;;;;;;4981850;28;20034;-67
2022/03/18 03:45:47;;;;;;;85.18;43.05;;;;;;;;;;4980884;28;20104;-67
2022/03/18 03:48:13;;;;;;;88.93;42.65;;;;;;;;;;4981408;28;20046;-68
2022/03/18 03:50:40;;;;;;;83.00;42.13;;;;;;;;;;4982133;28;20041;-67
2022/03/18 03:53:07;;;;;;;80.63;40.00;;;;;;;;;;4982322;28;20407;-67
2022/03/18 03:55:34;;;;;;;84.25;40.67;;;;;;;;;;4981733;28;20479;-67
2022/03/18 03:58:00;;;;;;;77.75;41.72;;;;;;;;;;4980465;28;20042;-68
2022/03/18 04:00:25;;;;;;;84.68;41.35;;;;;;;;;;4981695;28;20049;-67
2022/03/18 04:02:51;;;;;;;82.78;40.78;;;;;;;;;;4981711;28;20126;-67
2022/03/18 04:05:16;;;;;;;81.20;40.20;;;;;;;;;;4981859;28;20065;-67
2022/03/18 04:07:44;;;;;;;75.63;39.92;;;;;;;;;;4980650;28;20799;-67
2022/03/18 04:10:11;;;;;;;76.85;40.28;;;;;;;;;;4981603;28;20030;-67
2022/03/18 04:12:36;;;;;;;83.07;39.92;;;;;;;;;;4981921;28;20053;-68
2022/03/18 04:15:03;;;;;;;74.25;37.70;;;;;;;;;;4979885;28;20038;-68
2022/03/18 04:17:36;;;;;;;79.72;38.97;;;;;;;;;;4981564;28;20038;-67
2022/03/18 04:20:02;;;;;;;77.60;41.10;;;;;;;;;;4980585;28;20038;-67
2022/03/18 04:22:28;;;;;;;85.13;39.17;;;;;;;;;;4981836;28;20046;-68
2022/03/18 04:24:53;;;;;;;73.60;39.90;;;;;;;;;;4981517;28;20037;-67
2022/03/18 04:27:21;;;;;;;78.05;38.42;;;;;;;;;;4985530;28;20827;-68
2022/03/18 04:29:46;;;;;;;84.13;41.50;;;;;;;;;;4984439;28;20391;-67
2022/03/18 04:32:11;;;;;;;78.22;39.58;;;;;;;;;;4985183;28;20050;-68
2022/03/18 04:34:37;;;;;;;81.40;39.17;;;;;;;;;;4985463;28;20050;-67
2022/03/18 04:37:03;;;;;;;82.18;39.67;;;;;;;;;;4982651;28;20054;-68
2022/03/18 04:39:29;;;;;;;74.93;39.03;;;;;;;;;;4984904;28;20045;-67
2022/03/18 04:41:54;;;;;;;74.85;39.10;;;;;;;;;;4984433;28;20058;-67
2022/03/18 04:44:20;;;;;;;72.00;40.20;;;;;;;;;;4985331;28;20120;-67
2022/03/18 04:46:48;;;;;;;86.40;42.40;;;;;;;;;;4982485;28;20466;-67
2022/03/18 04:49:13;;;;;;;74.63;39.25;;;;;;;;;;4984894;28;20085;-67
2022/03/18 04:51:39;;;;;;;80.10;41.53;;;;;;;;;;4984294;28;20046;-68
2022/03/18 04:54:04;;;;;;;77.00;42.00;;;;;;;;;;4985107;28;20042;-67
2022/03/18 04:59:13;;;;;;;82.65;42.28;;;;;;;;;;4984709;28;20041;-68
2022/03/18 05:01:39;;;;;;;73.05;39.13;;;;;;;;;;4984378;28;20042;-68
2022/03/18 05:04:04;;;;;;;75.00;39.40;;;;;;;;;;4984054;28;20565;-68
2022/03/18 05:06:30;;;;;;;73.53;39.80;;;;;;;;;;4985158;28;20046;-67
2022/03/18 05:08:56;;;;;;;75.88;40.47;;;;;;;;;;4984435;28;20117;-68
2022/03/18 05:11:22;;;;;;;81.75;40.60;;;;;;;;;;4983197;28;20137;-67
2022/03/18 05:13:48;;;;;;;80.30;41.85;;;;;;;;;;4983933;28;20149;-66
2022/03/18 05:16:15;;;;;;;84.82;41.67;;;;;;;;;;4983837;28;20034;-66
2022/03/18 05:18:40;;;;;;;82.55;41.65;;;;;;;;;;4984711;28;20038;-67
2022/03/18 05:21:05;;;;;;;92.47;43.92;;;;;;;;;;4983998;28;20038;-67
2022/03/18 05:23:32;;;;;;;88.20;42.30;;;;;;;;;;4984762;28;20037;-67
2022/03/18 05:26:00;;;;;;;87.70;43.90;;;;;;;;;;4983491;28;20038;-66
2022/03/18 05:28:26;;;;;;;89.22;43.15;;;;;;;;;;4984434;28;20274;-66
2022/03/18 05:30:52;;;;;;;97.68;44.75;;;;;;;;;;4983582;28;21036;-66
2022/03/18 05:33:19;;;;;;;91.63;44.58;;;;;;;;;;4983474;28;20033;-67
2022/03/18 05:35:45;;;;;;;100.00;47.15;;;;;;;;;;4983062;28;20511;-66
2022/03/18 05:38:10;;;;;;;96.43;47.55;;;;;;;;;;4982167;28;20480;-65
2022/03/18 05:40:36;;;;;;;96.05;46.10;;;;;;;;;;4983958;28;20042;-66
2022/03/18 05:43:01;;;;;;;94.75;45.60;;;;;;;;;;4983693;28;21046;-66
2022/03/18 05:45:27;;;;;;;90.15;43.92;;;;;;;;;;4982486;28;20050;-67
2022/03/18 05:47:52;;;;;;;91.55;45.45;;;;;;;;;;4983615;28;20039;-67
2022/03/18 05:50:19;;;;;;;90.30;45.30;;;;;;;;;;4983346;28;20096;-67
2022/03/18 05:52:47;;;;;;;83.22;42.38;;;;;;;;;;4983773;28;20046;-66
2022/03/18 05:55:13;;;;;;;84.30;42.65;;;;;;;;;;4983254;28;20049;-66
2022/03/18 05:57:38;;;;;;;92.40;44.53;;;;;;;;;;4988181;28;20042;-66
2022/03/18 06:00:05;;;;;;;83.80;40.50;;;;;;;;;;4983082;28;20045;-66
2022/03/18 06:02:38;;;;;;;82.60;42.53;;;;;;;;;;4983834;28;20065;-66
2022/03/18 06:05:03;;;;;;;77.72;41.05;;;;;;;;;;4983368;28;20148;-67
2022/03/18 06:07:29;;;;;;;93.25;43.38;;;;;;;;;;4982623;28;20141;-69
2022/03/18 06:12:38;;;;;;;76.22;38.97;;;;;;;;;;4983193;28;20446;-66
2022/03/18 06:15:04;;;;;;;68.45;38.60;;;;;;;;;;4982434;28;20956;-66
2022/03/18 06:17:30;;;;;;;68.57;38.75;;;;;;;;;;4976660;28;20170;-66
2022/03/18 06:19:56;;;;;;;78.60;40.25;;;;;;;;;;4977699;28;20034;-67
2022/03/18 06:22:21;;;;;;;74.55;38.97;;;;;;;;;;4980279;28;20096;-66
2022/03/18 06:24:47;;;;;;;69.05;38.38;;;;;;;;;;4979100;28;20038;-67
2022/03/18 06:27:12;;;;;;;73.65;39.78;;;;;;;;;;4979990;28;20085;-67
2022/03/18 06:29:39;;;;;;;77.45;40.80;;;;;;;;;;4978109;28;20100;-67
2022/03/18 06:32:05;;;;;;;69.65;38.70;;;;;;;;;;4977777;28;20038;-67
2022/03/18 06:34:31;;;;;;;71.45;38.67;;;;;;;;;;4981107;28;20104;-67
2022/03/18 06:37:00;;;;;;;76.15;39.30;;;;;;;;;;4981734;28;20039;-66
2022/03/18 06:39:26;;;;;;;72.57;37.22;;;;;;;;;;4982987;28;20071;-66
2022/03/18 06:41:51;;;;;;;60.15;34.35;;;;;;;;;;4982002;28;20392;-67
2022/03/18 06:44:17;;;;;;;69.18;36.17;;;;;;;;;;4983158;28;20546;-67
2022/03/18 06:46:43;;;;;;;68.07;36.92;;;;;;;;;;4982965;28;20769;-67
2022/03/18 06:49:08;;;;;;;68.40;35.28;;;;;;;;;;4981712;28;20046;-68
2022/03/18 06:51:35;;;;;;;64.18;33.65;;;;;;;;;;4981714;28;20427;-68
2022/03/18 06:54:00;;;;;;;65.78;37.65;;;;;;;;;;4980839;28;20094;-68
2022/03/18 06:56:27;;;;;;;67.57;35.28;;;;;;;;;;4981022;28;20121;-67
2022/03/18 06:58:53;;;;;;;61.95;34.72;;;;;;;;;;4980714;28;20050;-68
2022/03/18 07:01:23;;;;;;;65.72;36.80;;;;;;;;;;4980583;28;20049;-68
2022/03/18 07:03:50;;;;;;;65.88;37.70;;;;;;;;;;4980255;28;20053;-68
2022/03/18 07:06:15;;;;;;;64.43;36.22;;;;;;;;;;4980840;28;20037;-67
2022/03/18 07:08:41;;;;;;;62.58;36.95;;;;;;;;;;4981651;28;20046;-67
2022/03/18 07:11:07;;;;;;;65.57;34.70;;;;;;;;;;4981361;28;20092;-68
2022/03/18 07:13:33;;;;;;;59.92;35.10;;;;;;;;;;4981484;28;20056;-68
2022/03/18 07:17:54;;;;;;;61.30;35.53;;;;;;;;;;4982057;28;20038;-68
2022/03/18 07:18:44;;;;;;;60.28;34.47;;;;;;;;;;4982010;28;20038;-67
2022/03/18 07:21:09;;;;;;;64.00;35.60;;;;;;;;;;4982104;28;20237;-68
2022/03/18 07:23:35;;;;;;;68.38;36.20;;;;;;;;;;4982205;28;20042;-68
2022/03/18 07:26:00;;;;;;;59.70;32.55;;;;;;;;;;4979278;28;20060;-71
2022/03/18 07:28:26;;;;;;;55.00;33.63;;;;;;;;;;4977544;28;20156;-69
2022/03/18 07:30:51;;;;;;;59.20;33.67;;;;;;;;;;4980082;28;20130;-68
2022/03/18 07:33:16;;;;;;;55.10;32.45;;;;;;;;;;4979591;28;20034;-67
2022/03/18 07:35:42;;;;;;;51.50;31.25;;;;;;;;;;4980006;28;20480;-68
2022/03/18 07:38:09;;;;;;;52.55;29.95;;;;;;;;;;4981731;28;20038;-68
2022/03/18 07:40:38;;;;;;;51.70;28.98;;;;;;;;;;4982064;28;20054;-68
2022/03/18 07:43:05;;;;;;;52.13;29.98;;;;;;;;;;4981800;28;20105;-67
2022/03/18 07:45:32;;;;;;;50.22;29.77;;;;;;;;;;4982097;28;20838;-68
2022/03/18 07:47:59;;;;;;;46.50;28.92;;;;;;;;;;4980996;28;20062;-68
2022/03/18 07:50:27;;;;;;;48.35;28.77;;;;;;;;;;4982166;28;21015;-68
2022/03/18 07:52:54;;;;;;;45.53;28.75;;;;;;;;;;4981710;28;20115;-67
2022/03/18 07:55:22;;;;;;;42.00;26.13;;;;;;;;;;4981811;28;20073;-70
2022/03/18 07:57:48;;;;;;;44.90;25.67;;;;;;;;;;4980751;28;20038;-68
2022/03/18 08:00:15;;;;;;;41.83;26.77;;;;;;;;;;4981380;28;20049;-70
2022/03/18 08:02:46;;;;;;;42.30;24.65;;;;;;;;;;4972300;28;20148;-68
2022/03/18 08:05:12;;;;;;;43.70;24.17;;;;;;;;;;4980587;28;20062;-68
2022/03/18 08:07:39;;;;;;;35.17;22.45;;;;;;;;;;4981514;28;20044;-68
2022/03/18 08:10:05;;;;;;;41.67;23.65;;;;;;;;;;4980807;28;20047;-68
2022/03/18 08:12:32;;;;;;;36.38;23.08;;;;;;;;;;4981827;28;20038;-68
2022/03/18 08:14:58;;;;;;;32.05;21.67;;;;;;;;;;4981105;28;20089;-67
2022/03/18 08:17:24;;;;;;;42.70;23.30;;;;;;;;;;4980098;28;20049;-68
2022/03/18 08:19:53;;;;;;;40.08;22.23;;;;;;;;;;4980385;28;20042;-68
2022/03/18 08:22:22;;;;;;;33.70;22.05;;;;;;;;;;4981132;28;20046;-68
2022/03/18 08:24:49;;;;;;;31.50;19.95;;;;;;;;;;4981032;28;20042;-67
2022/03/18 08:27:15;;;;;;;31.92;21.63;;;;;;;;;;4981341;28;20125;-67
2022/03/18 08:29:40;;;;;;;37.53;20.83;;;;;;;;;;4981067;28;20038;-67
2022/03/18 08:32:07;;;;;;;33.60;20.48;;;;;;;;;;4979766;28;20052;-67
2022/03/18 08:34:33;;;;;;;33.72;21.23;;;;;;;;;;4980149;28;20434;-66
2022/03/18 08:36:58;;;;;;;35.40;20.63;;;;;;;;;;4980952;28;20053;-67
2022/03/18 08:39:24;;;;;;;34.58;21.75;;;;;;;;;;4981202;28;20046;-68
2022/03/18 08:41:50;;;;;;;30.52;20.48;;;;;;;;;;4980776;28;20038;-67
2022/03/18 08:44:19;;;;;;;34.10;20.85;;;;;;;;;;4980746;28;20026;-69
2022/03/18 08:46:46;;;;;;;32.72;20.50;;;;;;;;;;4980893;28;20089;-68
2022/03/18 08:49:11;;;;;;;34.25;20.73;;;;;;;;;;4981286;28;20392;-68
2022/03/18 08:51:37;;;;;;;33.55;20.35;;;;;;;;;;4981600;28;20042;-69
2022/03/18 08:54:02;;;;;;;30.63;19.20;;;;;;;;;;4980629;28;20046;-70
2022/03/18 08:56:28;;;;;;;27.92;19.33;;;;;;;;;;4981096;28;20045;-68
2022/03/18 08:58:53;;;;;;;31.52;20.60;;;;;;;;;;4979911;28;20989;-67
2022/03/18 09:01:19;;;;;;;34.47;20.30;;;;;;;;;;4981433;28;20037;-68
2022/03/18 09:04:31;;;;;;;30.33;17.05;;;;;;;;;;4980763;28;20053;-67
2022/03/18 09:06:57;;;;;;;32.00;20.77;;;;;;;;;;4969401;28;20034;-67
2022/03/18 09:09:22;;;;;;;29.67;19.95;;;;;;;;;;4980209;28;20038;-67
2022/03/18 09:11:47;;;;;;;30.95;20.05;;;;;;;;;;4982302;28;20523;-66
2022/03/18 09:14:14;;;;;;;34.75;20.80;;;;;;;;;;4984399;28;20044;-67
2022/03/18 09:16:39;;;;;;;30.98;20.33;;;;;;;;;;4983247;28;20049;-68
2022/03/18 09:19:06;;;;;;;36.13;20.52;;;;;;;;;;4983971;28;20037;-67
2022/03/18 09:21:32;;;;;;;37.33;21.50;;;;;;;;;;4984234;28;20049;-67
2022/03/18 09:23:57;;;;;;;32.42;21.10;;;;;;;;;;4984791;28;20564;-67
2022/03/18 09:26:23;;;;;;;34.95;21.15;;;;;;;;;;4983481;28;20129;-68
2022/03/18 09:28:48;;;;;;;39.25;22.13;;;;;;;;;;4984481;28;20120;-67
2022/03/18 09:31:14;;;;;;;33.78;19.88;;;;;;;;;;4984648;28;20517;-68
2022/03/18 09:33:42;;;;;;;32.75;20.88;;;;;;;;;;4983432;28;20042;-69
2022/03/18 09:36:08;;;;;;;32.22;19.30;;;;;;;;;;4983704;28;20042;-67
2022/03/18 09:38:34;;;;;;;29.20;19.35;;;;;;;;;;4982948;28;20042;-68
2022/03/18 09:40:59;;;;;;;31.85;18.95;;;;;;;;;;4984198;28;20041;-67
2022/03/18 09:43:25;;;;;;;36.58;19.40;;;;;;;;;;4984528;28;20423;-69
2022/03/18 09:45:51;;;;;;;32.13;19.02;;;;;;;;;;4984495;28;20037;-68
2022/03/18 09:48:17;;;;;;;30.83;19.70;;;;;;;;;;4983051;28;20042;-67
2022/03/18 09:50:43;;;;;;;29.83;17.65;;;;;;;;;;4983779;28;20049;-69
2022/03/18 09:53:08;;;;;;;30.10;18.25;;;;;;;;;;4983997;28;20042;-68
2022/03/18 09:55:37;;;;;;;31.95;17.02;;;;;;;;;;4983579;28;20066;-68
2022/03/18 09:58:03;;;;;;;32.45;18.67;;;;;;;;;;4983408;28;21383;-68
2022/03/18 10:00:29;;;;;;;28.73;16.40;;;;;;;;;;4982193;28;20117;-67
2022/03/18 10:03:16;;;;;;;26.08;16.35;;;;;;;;;;4984007;28;20538;-68
2022/03/18 10:05:49;;;;;;;29.50;17.40;;;;;;;;;;4983456;28;20066;-69
2022/03/18 10:08:15;;;;;;;27.02;18.00;;;;;;;;;;4983700;28;20046;-68
2022/03/18 10:10:46;;;;;;;29.42;16.83;;;;;;;;;;4982928;28;20464;-68
2022/03/18 10:13:12;;;;;;;26.27;15.45;;;;;;;;;;4983749;28;20048;-67
2022/03/18 10:15:38;;;;;;;29.20;16.20;;;;;;;;;;4983383;28;20076;-66
2022/03/18 10:18:04;;;;;;;27.50;16.27;;;;;;;;;;4983426;28;20050;-68
2022/03/18 10:20:35;;;;;;;30.83;18.17;;;;;;;;;;4982369;28;20047;-67
2022/03/18 10:23:16;;;;;;;26.20;16.42;;;;;;;;;;4982289;28;20042;-70
2022/03/18 10:25:53;;;;;;;27.55;16.45;;;;;;;;;;4982859;28;20045;-70
2022/03/18 10:28:36;;;;;;;23.23;14.90;;;;;;;;;;4982883;28;20065;-67
2022/03/18 10:31:19;;;;;;;28.60;17.52;;;;;;;;;;4982547;28;20034;-69
2022/03/18 10:37:04;;;;;;;26.15;16.63;;;;;;;;;;4983246;28;20034;-67
2022/03/18 10:39:34;;;;;;;23.60;16.35;;;;;;;;;;4982382;28;20158;-69
2022/03/18 10:42:02;;;;;;;25.23;16.65;;;;;;;;;;4982643;28;20034;-68
2022/03/18 10:44:49;;;;;;;23.27;15.63;;;;;;;;;;4981872;28;20069;-70
2022/03/18 10:47:26;;;;;;;26.15;17.33;;;;;;;;;;4982841;28;20038;-69
2022/03/18 10:50:16;;;;;;;23.38;14.75;;;;;;;;;;4982725;28;20046;-66
2022/03/18 10:52:47;;;;;;;25.30;17.20;;;;;;;;;;4982847;28;20041;-68
2022/03/18 10:55:23;;;;;;;25.20;16.20;;;;;;;;;;4981614;28;20034;-68
2022/03/18 10:58:01;;;;;;;23.95;16.02;;;;;;;;;;4982173;28;20052;-68
2022/03/18 11:00:29;;;;;;;26.25;17.40;;;;;;;;;;4982558;28;20049;-68
2022/03/18 11:02:58;;;;;;;26.45;16.52;;;;;;;;;;4982670;28;20056;-70
2022/03/18 11:05:24;;;;;;;27.58;17.15;;;;;;;;;;4981564;28;20038;-67
2022/03/18 11:07:53;;;;;;;24.73;16.10;;;;;;;;;;4982434;28;20041;-67
2022/03/18 11:13:06;;;;;;;25.40;16.50;;;;;;;;;;4982246;28;20058;-67
2022/03/18 11:15:34;;;;;;;23.73;15.27;;;;;;;;;;4981149;28;20420;-66
2022/03/18 11:18:03;;;;;;;23.67;15.05;;;;;;;;;;4981804;28;20151;-66
2022/03/18 11:20:32;;;;;;;23.33;15.85;;;;;;;;;;4980903;28;20492;-66
2022/03/18 11:22:57;;;;;;;24.23;16.42;;;;;;;;;;4982462;28;20537;-66
2022/03/18 11:25:23;;;;;;;28.83;17.10;;;;;;;;;;4982011;28;20038;-68
2022/03/18 11:27:51;;;;;;;26.10;16.83;;;;;;;;;;4981075;28;20046;-67
2022/03/18 11:30:18;;;;;;;27.35;16.95;;;;;;;;;;4981875;28;20052;-66
2022/03/18 11:32:43;;;;;;;27.42;15.85;;;;;;;;;;4982009;28;20062;-69
2022/03/18 11:35:09;;;;;;;25.75;16.38;;;;;;;;;;4981207;28;20562;-67
2022/03/18 11:37:35;;;;;;;28.58;15.95;;;;;;;;;;4981011;28;20120;-69
2022/03/18 11:40:19;;;;;;;24.00;16.92;;;;;;;;;;4981746;28;20042;-70
2022/03/18 11:42:45;;;;;;;32.53;17.25;;;;;;;;;;4981884;28;20038;-68
2022/03/18 11:45:36;;;;;;;26.30;16.80;;;;;;;;;;4981480;28;20035;-70
2022/03/18 11:48:34;;;;;;;28.80;17.33;;;;;;;;;;4980748;28;20045;-69
2022/03/18 11:51:25;;;;;;;23.90;16.05;;;;;;;;;;4981420;28;20089;-68
2022/03/18 11:53:56;;;;;;;31.60;16.00;;;;;;;;;;4981775;28;20555;-71
2022/03/18 11:56:40;;;;;;;26.27;16.45;;;;;;;;;;4981212;28;20073;-69
2022/03/18 11:59:24;;;;;;;27.48;16.13;;;;;;;;;;4981234;28;20034;-69
2022/03/18 12:01:56;;;;;;;24.52;17.40;;;;;;;;;;4981222;28;20039;-68
2022/03/18 12:04:34;;;;;;;25.92;16.35;;;;;;;;;;4981793;28;20046;-69
2022/03/18 12:10:34;;;;;;;23.42;15.95;;;;;;;;;;5079551;22;20302;-69
2022/03/18 12:13:02;;;;;;;24.30;15.40;;;;;;;;;;4981684;28;20121;-69
2022/03/18 12:15:29;;;;;;;29.45;17.02;;;;;;;;;;4981419;28;20411;-68
2022/03/18 12:17:57;;;;;;;23.35;15.35;;;;;;;;;;4984305;28;20084;-68
2022/03/18 12:20:34;;;;;;;23.45;15.13;;;;;;;;;;4997417;28;20070;-68
2022/03/18 12:23:06;;;;;;;27.80;17.40;;;;;;;;;;4990818;28;20041;-69
2022/03/18 12:25:32;;;;;;;26.13;16.25;;;;;;;;;;4989558;28;20132;-69
2022/03/18 12:27:58;;;;;;;26.23;17.52;;;;;;;;;;4989741;28;20125;-68
2022/03/18 12:30:28;;;;;;;26.70;17.08;;;;;;;;;;4992890;28;20068;-68
2022/03/18 12:32:55;;;;;;;23.92;16.63;;;;;;;;;;4998034;28;20038;-70
2022/03/18 12:35:28;;;;;;;25.30;17.25;;;;;;;;;;4998824;28;20544;-68
2022/03/18 12:38:17;;;;;;;34.80;17.70;;;;;;;;;;4975660;28;20585;-70
2022/03/18 12:41:03;;;;;;;28.00;18.48;;;;;;;;;;4985990;28;20097;-69
2022/03/18 12:43:31;;;;;;;33.42;18.35;;;;;;;;;;4991966;28;20042;-69
2022/03/18 12:45:57;;;;;;;23.05;16.70;;;;;;;;;;4990616;28;20391;-69
2022/03/18 12:48:23;;;;;;;30.40;18.45;;;;;;;;;;4989599;28;20049;-68
2022/03/18 12:50:52;;;;;;;27.30;16.40;;;;;;;;;;4994829;28;20530;-68
2022/03/18 12:53:27;;;;;;;25.02;18.35;;;;;;;;;;4992026;28;20044;-69
2022/03/18 12:56:03;;;;;;;31.05;17.40;;;;;;;;;;4978459;28;20076;-68
2022/03/18 12:58:40;;;;;;;25.35;17.50;;;;;;;;;;4979801;28;20053;-69
2022/03/18 13:01:08;;;;;;;29.48;17.60;;;;;;;;;;5002870;28;20487;-68
2022/03/18 13:03:34;;;;;;;28.05;18.50;;;;;;;;;;5000176;28;20057;-70
2022/03/18 13:06:09;;;;;;;26.73;17.73;;;;;;;;;;4998297;28;20031;-68
2022/03/18 13:08:35;;;;;;;26.50;18.15;;;;;;;;;;4996028;28;20033;-69
2022/03/18 13:11:03;;;;;;;28.65;17.02;;;;;;;;;;4992841;28;20052;-68
2022/03/18 13:13:29;;;;;;;27.23;17.75;;;;;;;;;;4993658;28;20073;-69
2022/03/18 13:16:01;;;;;;;28.00;17.88;;;;;;;;;;4995877;28;20034;-69
2022/03/18 13:18:31;;;;;;;30.25;16.98;;;;;;;;;;5000822;28;20050;-69
2022/03/18 13:21:04;;;;;;;25.92;17.83;;;;;;;;;;4996379;28;20049;-69
2022/03/18 13:23:31;;;;;;;27.48;15.48;;;;;;;;;;4982866;28;20133;-68
2022/03/18 13:25:57;;;;;;;29.17;16.52;;;;;;;;;;4981685;28;20065;-68
2022/03/18 13:28:26;;;;;;;22.85;15.52;;;;;;;;;;4991876;28;20037;-68
2022/03/18 13:33:47;;;;;;;27.35;16.95;;;;;;;;;;4988481;28;20104;-68
2022/03/18 13:36:37;;;;;;;25.90;16.50;;;;;;;;;;4985125;28;20026;-68
2022/03/18 13:39:08;;;;;;;25.02;16.55;;;;;;;;;;4983089;28;20034;-69
2022/03/18 13:41:47;;;;;;;24.20;16.03;;;;;;;;;;4995555;28;20108;-68
2022/03/18 13:44:12;;;;;;;27.92;15.73;;;;;;;;;;4991158;28;20137;-70
2022/03/18 13:46:38;;;;;;;27.48;16.23;;;;;;;;;;4993867;28;20091;-73
2022/03/18 13:49:13;;;;;;;30.20;16.73;;;;;;;;;;4991960;28;20048;-69
2022/03/18 13:51:41;;;;;;;21.80;13.40;;;;;;;;;;4991482;28;20064;-69
2022/03/18 13:54:12;;;;;;;21.98;15.15;;;;;;;;;;4997701;28;20082;-72
2022/03/18 13:56:41;;;;;;;22.67;13.73;;;;;;;;;;5003089;28;20038;-68
2022/03/18 13:59:16;;;;;;;24.50;16.45;;;;;;;;;;4986569;28;20590;-70
2022/03/18 14:02:00;;;;;;;26.98;15.57;;;;;;;;;;4989712;28;20089;-68
2022/03/18 14:04:36;;;;;;;30.15;15.80;;;;;;;;;;4987241;28;20117;-71
2022/03/18 14:07:02;;;;;;;28.27;15.77;;;;;;;;;;4991473;28;20052;-68
2022/03/18 14:09:28;;;;;;;24.10;16.38;;;;;;;;;;4988849;28;20101;-71
2022/03/18 14:12:11;;;;;;;25.52;17.27;;;;;;;;;;4983175;28;20080;-67
2022/03/18 14:14:37;;;;;;;22.60;15.70;;;;;;;;;;4991245;28;20057;-71
2022/03/18 14:17:11;;;;;;;30.30;16.67;;;;;;;;;;4990577;28;20080;-68
2022/03/18 14:19:48;;;;;;;26.20;16.15;;;;;;;;;;4982877;28;20133;-70
2022/03/18 14:22:35;;;;;;;21.98;14.80;;;;;;;;;;4984726;28;20061;-73
2022/03/18 14:25:04;;;;;;;23.10;14.70;;;;;;;;;;4997339;28;20038;-68
2022/03/18 14:30:25;;;;;;;24.58;15.65;;;;;;;;;;5272162;23;20407;-71
2022/03/18 14:33:01;;;;;;;25.08;15.68;;;;;;;;;;4959304;28;20033;-72
2022/03/18 14:35:28;;;;;;;26.33;16.45;;;;;;;;;;4960038;28;20555;-69
2022/03/18 14:37:53;;;;;;;21.73;14.65;;;;;;;;;;4959564;28;20122;-70
2022/03/18 14:40:21;;;;;;;20.67;13.88;;;;;;;;;;4949322;28;20181;-70
2022/03/18 14:42:47;;;;;;;22.67;15.50;;;;;;;;;;4944757;28;20101;-70
2022/03/18 14:45:14;;;;;;;22.85;16.33;;;;;;;;;;4945932;28;20126;-71
2022/03/18 14:47:41;;;;;;;24.77;14.98;;;;;;;;;;4956298;28;20066;-68
2022/03/18 14:50:08;;;;;;;22.30;13.57;;;;;;;;;;4953847;28;20513;-69
2022/03/18 14:52:34;;;;;;;25.70;12.90;;;;;;;;;;4948712;28;20047;-70
2022/03/18 14:57:45;;;;;;;20.55;13.82;;;;;;;;;;4956387;28;20038;-71